createdAt,value
2022-12-24T00:02:41.907Z,12.90
2022-12-24T00:07:46.588Z,9.82
2022-12-24T00:12:52.778Z,9.95
2022-12-24T00:17:57.262Z,12.50
2022-12-24T00:23:01.868Z,10.77
2022-12-24T00:28:07.904Z,10.23
2022-12-24T00:33:12.808Z,13.02
2022-12-24T00:38:17.426Z,10.63
2022-12-24T00:43:23.373Z,9.63
2022-12-24T00:48:28.216Z,8.68
2022-12-24T00:53:32.806Z,9.25
2022-12-24T00:58:39.297Z,9.70
2022-12-24T01:03:44.216Z,9.52
2022-12-24T01:08:52.107Z,8.68
2022-12-24T01:13:58.948Z,9.07
2022-12-24T01:19:03.414Z,9.05
2022-12-24T01:24:08.559Z,8.93
2022-12-24T01:29:14.647Z,8.97
2022-12-24T01:34:19.000Z,9.43
2022-12-24T01:39:23.432Z,9.25
2022-12-24T01:44:36.130Z,8.75
2022-12-24T01:49:44.330Z,9.00
2022-12-24T01:54:52.015Z,9.48
2022-12-24T02:00:02.431Z,10.32
2022-12-24T02:05:13.229Z,10.20
2022-12-24T02:10:18.800Z,10.50
2022-12-24T02:15:26.198Z,10.32
2022-12-24T02:21:00.360Z,10.35
2022-12-24T02:26:24.151Z,10.20
2022-12-24T02:31:38.065Z,10.50
2022-12-24T02:36:48.367Z,9.45
2022-12-24T02:42:08.536Z,10.02
2022-12-24T02:47:18.301Z,9.48
2022-12-24T02:52:34.770Z,9.35
2022-12-24T02:57:52.097Z,9.75
2022-12-24T03:03:26.196Z,9.93
2022-12-24T03:08:36.644Z,9.48
2022-12-24T03:13:42.828Z,9.77
2022-12-24T03:18:51.283Z,10.50
2022-12-24T03:23:56.098Z,9.50
2022-12-24T03:29:03.323Z,8.20
2022-12-24T03:34:09.294Z,8.70
2022-12-24T03:39:13.971Z,9.60
2022-12-24T03:44:18.397Z,8.68
2022-12-24T03:49:24.726Z,9.90
2022-12-24T03:54:29.428Z,9.00
2022-12-24T03:59:34.125Z,8.65
2022-12-24T04:04:40.059Z,9.10
2022-12-24T04:14:51.176Z,9.50
2022-12-24T04:19:57.759Z,9.15
2022-12-24T04:25:02.375Z,11.10
2022-12-24T04:30:08.302Z,14.75
2022-12-24T04:35:14.464Z,7.80
2022-12-24T04:40:19.251Z,9.07
2022-12-24T04:45:24.634Z,9.95
2022-12-24T04:50:30.665Z,8.88
2022-12-24T04:55:35.256Z,9.60
2022-12-24T05:00:39.936Z,8.48
2022-12-24T05:05:46.034Z,7.18
2022-12-24T05:10:57.067Z,7.45
2022-12-24T05:16:02.530Z,7.15
2022-12-24T05:21:11.785Z,9.55
2022-12-24T05:26:25.079Z,8.02
2022-12-24T05:31:32.181Z,6.20
2022-12-24T05:36:38.255Z,6.68
2022-12-24T05:41:42.982Z,6.22
2022-12-24T05:46:47.755Z,10.93
2022-12-24T05:51:53.812Z,5.63
2022-12-24T05:56:58.413Z,5.18
2022-12-24T06:02:03.106Z,5.05
2022-12-24T06:07:09.352Z,4.60
2022-12-24T06:12:13.993Z,4.65
2022-12-24T06:17:18.673Z,5.57
2022-12-24T06:22:24.763Z,4.80
2022-12-24T06:27:29.277Z,6.15
2022-12-24T06:32:33.889Z,4.85
2022-12-24T06:37:39.935Z,7.55
2022-12-24T06:42:44.732Z,16.17
2022-12-24T06:47:51.376Z,29.02
2022-12-24T06:52:57.904Z,6.35
2022-12-24T06:58:02.697Z,6.40
2022-12-24T07:03:07.322Z,6.35
2022-12-24T07:08:13.596Z,9.70
2022-12-24T07:13:18.480Z,12.38
2022-12-24T07:18:22.918Z,8.73
2022-12-24T07:23:28.874Z,12.95
2022-12-24T07:28:33.582Z,9.05
2022-12-24T07:33:39.399Z,4.10
2022-12-24T07:38:45.433Z,3.13
2022-12-24T07:43:50.087Z,2.28
2022-12-24T07:48:55.602Z,2.22
2022-12-24T07:54:01.487Z,2.10
2022-12-24T07:59:06.186Z,2.10
2022-12-24T08:04:10.727Z,2.00
2022-12-24T08:09:16.992Z,2.40
2022-12-24T08:14:21.570Z,3.30
2022-12-24T08:19:26.237Z,4.35
2022-12-24T08:24:32.129Z,5.68
2022-12-24T08:29:36.813Z,4.65
2022-12-24T08:34:42.100Z,4.50
2022-12-24T08:39:47.945Z,4.72
2022-12-24T08:49:56.888Z,6.22
2022-12-24T08:55:02.991Z,7.28
2022-12-24T09:00:09.637Z,6.95
2022-12-24T09:05:14.121Z,8.10
2022-12-24T09:10:20.400Z,8.52
2022-12-24T09:15:24.973Z,8.13
2022-12-24T09:20:29.805Z,8.80
2022-12-24T09:25:35.709Z,7.82
2022-12-24T09:30:40.257Z,7.97
2022-12-24T09:35:44.796Z,9.15
2022-12-24T09:40:52.142Z,11.05
2022-12-24T09:46:08.585Z,9.30
2022-12-24T09:51:16.645Z,7.95
2022-12-24T09:56:25.773Z,8.13
2022-12-24T10:01:33.162Z,9.70
2022-12-24T10:06:46.545Z,10.77
2022-12-24T10:12:02.334Z,9.10
2022-12-24T10:17:31.696Z,9.15
2022-12-24T10:22:44.656Z,9.00
2022-12-24T10:27:51.373Z,8.90
2022-12-24T10:32:56.630Z,9.50
2022-12-24T10:38:01.083Z,9.32
2022-12-24T10:43:15.254Z,12.20
2022-12-24T10:48:29.500Z,9.45
2022-12-24T10:53:42.060Z,14.18
2022-12-24T10:58:52.973Z,9.00
2022-12-24T11:04:05.003Z,8.73
2022-12-24T11:09:24.221Z,10.40
2022-12-24T11:14:36.047Z,9.75
2022-12-24T11:19:41.008Z,11.30
2022-12-24T11:24:50.326Z,11.17
2022-12-24T11:30:20.279Z,17.75
2022-12-24T11:35:26.734Z,13.60
2022-12-24T11:40:36.122Z,10.82
2022-12-24T11:45:50.886Z,8.32
2022-12-24T11:50:59.123Z,8.30
2022-12-24T11:56:10.127Z,12.77
2022-12-24T12:01:20.581Z,9.57
2022-12-24T12:06:30.061Z,9.00
2022-12-24T12:11:37.107Z,7.45
2022-12-24T12:17:05.295Z,7.05
2022-12-24T12:22:26.114Z,7.55
2022-12-24T12:27:35.231Z,7.13
2022-12-24T12:32:47.608Z,6.28
2022-12-24T12:37:59.013Z,7.57
2022-12-24T12:43:20.394Z,8.98
2022-12-24T12:49:02.247Z,13.95
2022-12-24T12:54:38.829Z,9.18
2022-12-24T12:59:49.676Z,9.67
2022-12-24T13:05:19.549Z,11.02
2022-12-24T13:10:51.525Z,13.00
2022-12-24T13:16:30.136Z,11.80
2022-12-24T13:21:36.484Z,11.75
2022-12-24T13:26:41.266Z,10.75
2022-12-24T13:31:52.036Z,10.77
2022-12-24T13:37:06.305Z,11.07
2022-12-24T13:42:10.720Z,13.20
2022-12-24T13:47:32.250Z,9.73
2022-12-24T13:52:42.459Z,8.95
2022-12-24T13:57:55.165Z,9.38
2022-12-24T14:03:06.541Z,8.02
2022-12-24T14:08:16.725Z,9.20
2022-12-24T14:13:53.311Z,9.90
2022-12-24T14:24:15.348Z,8.55
2022-12-24T14:29:26.684Z,10.20
2022-12-24T14:34:32.131Z,9.48
2022-12-24T14:39:42.723Z,10.02
2022-12-24T14:44:56.680Z,8.85
2022-12-24T14:50:36.214Z,8.00
2022-12-24T14:55:45.512Z,8.07
2022-12-24T15:00:50.761Z,9.05
2022-12-24T15:05:58.125Z,9.53
2022-12-24T15:11:07.094Z,9.30
2022-12-24T15:16:14.920Z,10.80
2022-12-24T15:21:23.769Z,10.32
2022-12-24T15:26:32.286Z,10.25
2022-12-24T15:31:38.112Z,10.55
2022-12-24T15:36:42.640Z,9.82
2022-12-24T15:42:05.188Z,8.13
2022-12-24T15:47:17.763Z,7.70
2022-12-24T15:52:25.505Z,8.35
2022-12-24T15:57:35.154Z,7.03
2022-12-24T16:02:41.961Z,8.05
2022-12-24T16:08:11.367Z,8.57
2022-12-24T16:13:20.307Z,7.70
2022-12-24T16:18:27.900Z,7.75
2022-12-24T16:23:39.183Z,9.63
2022-12-24T16:28:45.452Z,9.70
2022-12-24T16:33:54.570Z,10.13
2022-12-24T16:39:16.317Z,8.98
2022-12-24T16:44:25.216Z,11.05
2022-12-24T16:49:32.163Z,11.00
2022-12-24T16:54:36.973Z,11.13
2022-12-24T16:59:42.861Z,10.05
2022-12-24T17:04:48.353Z,11.02
2022-12-24T17:09:53.060Z,10.40
2022-12-24T17:15:00.362Z,13.65
2022-12-24T17:20:05.911Z,13.40
2022-12-24T17:25:13.338Z,13.57
2022-12-24T17:30:19.660Z,15.27
2022-12-24T17:35:24.588Z,12.77
2022-12-24T17:40:29.054Z,15.73
2022-12-24T17:45:35.067Z,11.35
2022-12-24T17:50:41.060Z,11.80
2022-12-24T18:00:52.587Z,9.98
2022-12-24T18:05:57.290Z,10.23
2022-12-24T18:11:01.800Z,11.32
2022-12-24T18:16:16.872Z,12.00
2022-12-24T18:21:26.687Z,12.27
2022-12-24T18:26:33.446Z,11.15
2022-12-24T18:31:40.062Z,11.48
2022-12-24T18:36:47.180Z,10.90
2022-12-24T18:41:55.871Z,10.77
2022-12-24T18:47:02.155Z,12.50
2022-12-24T18:52:07.884Z,13.90
2022-12-24T18:57:12.407Z,14.82
2022-12-24T19:02:18.470Z,12.25
2022-12-24T19:07:23.268Z,11.00
2022-12-24T19:12:27.808Z,12.25
2022-12-24T19:17:33.987Z,13.80
2022-12-24T19:22:38.601Z,13.80
2022-12-24T19:27:43.280Z,13.65
2022-12-24T19:32:51.399Z,14.75
2022-12-24T19:37:55.898Z,22.05
2022-12-24T19:43:00.676Z,13.27
2022-12-24T19:48:09.535Z,18.00
2022-12-24T19:53:14.130Z,12.55
2022-12-24T19:58:18.953Z,13.40
2022-12-24T20:03:24.973Z,12.05
2022-12-24T20:08:29.835Z,12.73
2022-12-24T20:13:34.542Z,14.95
2022-12-24T20:18:40.777Z,14.88
2022-12-24T20:23:45.252Z,14.15
2022-12-24T20:28:50.511Z,15.82
2022-12-24T20:33:57.832Z,16.23
2022-12-24T20:39:02.841Z,16.40
2022-12-24T20:44:07.700Z,14.20
2022-12-24T20:49:14.540Z,15.80
2022-12-24T20:54:21.084Z,15.90
2022-12-24T20:59:25.795Z,15.95
2022-12-24T21:04:31.768Z,16.00
2022-12-24T21:09:36.480Z,15.05
2022-12-24T21:14:41.010Z,14.02
2022-12-24T21:19:47.005Z,13.30
2022-12-24T21:24:51.481Z,12.82
2022-12-24T21:29:56.023Z,12.75
2022-12-24T21:35:02.219Z,12.80
2022-12-24T21:40:08.360Z,12.70
2022-12-24T21:45:14.793Z,12.55
2022-12-24T21:50:34.821Z,12.52
2022-12-24T21:55:39.307Z,11.35
2022-12-24T22:00:43.930Z,12.02
2022-12-24T22:05:49.836Z,13.02
2022-12-24T22:11:26.323Z,12.18
2022-12-24T22:21:37.716Z,10.63
2022-12-24T22:26:42.279Z,10.07
2022-12-24T22:31:46.937Z,9.07
2022-12-24T22:36:52.821Z,15.15
2022-12-24T22:41:58.137Z,9.65
2022-12-24T22:47:02.754Z,9.50
2022-12-24T22:52:10.399Z,8.40
2022-12-24T22:57:14.918Z,7.22
2022-12-24T23:02:27.537Z,6.80
2022-12-24T23:07:34.572Z,6.90
2022-12-24T23:12:56.401Z,7.13
2022-12-24T23:18:00.837Z,5.93
2022-12-24T23:23:06.963Z,5.20
2022-12-24T23:28:11.512Z,6.50
2022-12-24T23:33:15.971Z,5.38
2022-12-24T23:38:25.244Z,6.30
2022-12-24T23:43:33.296Z,6.20
2022-12-24T23:48:37.880Z,6.95
2022-12-24T23:53:44.418Z,9.97
2022-12-24T23:58:52.515Z,9.63
